createdAt,value
2019-05-29T00:00:03.567Z,98829.30
2019-05-29T00:02:32.061Z,98827.53
2019-05-29T00:05:00.509Z,98832.84
2019-05-29T00:07:28.953Z,98838.59
2019-05-29T00:09:57.437Z,98834.19
2019-05-29T00:12:25.885Z,98839.95
2019-05-29T00:14:54.374Z,98841.70
2019-05-29T00:17:22.812Z,98843.02
2019-05-29T00:19:51.302Z,98849.20
2019-05-29T00:22:19.752Z,98855.38
2019-05-29T00:24:48.323Z,98849.66
2019-05-29T00:27:17.839Z,98848.75
2019-05-29T00:29:46.642Z,98854.94
2019-05-29T00:32:15.213Z,98851.42
2019-05-29T00:34:43.615Z,98859.83
2019-05-29T00:37:12.515Z,98866.88
2019-05-29T00:39:41.296Z,98864.69
2019-05-29T00:42:11.022Z,98877.47
2019-05-29T00:44:39.622Z,98883.64
2019-05-29T00:47:08.107Z,98888.92
2019-05-29T00:49:36.614Z,98891.14
2019-05-29T00:52:05.195Z,98889.81
2019-05-29T00:54:33.702Z,98889.38
2019-05-29T00:57:02.153Z,98893.77
2019-05-29T00:59:30.639Z,98898.18
2019-05-29T01:01:59.079Z,98904.37
2019-05-29T01:04:27.561Z,98898.63
2019-05-29T01:06:56.009Z,98903.92
2019-05-29T01:09:24.505Z,98910.96
2019-05-29T01:11:52.944Z,98913.19
2019-05-29T01:14:21.507Z,98914.91
2019-05-29T01:16:49.968Z,98919.78
2019-05-29T01:19:27.249Z,98915.81
2019-05-29T01:21:58.613Z,98924.17
2019-05-29T01:24:27.535Z,98923.73
2019-05-29T01:26:56.083Z,98922.86
2019-05-29T01:29:24.591Z,98925.45
2019-05-29T01:31:53.097Z,98926.81
2019-05-29T01:34:21.991Z,98940.05
2019-05-29T01:36:50.729Z,98940.89
2019-05-29T01:39:19.378Z,98949.74
2019-05-29T01:41:47.988Z,98947.98
2019-05-29T01:44:17.406Z,98950.97
2019-05-29T01:46:45.978Z,98955.81
2019-05-29T01:49:16.009Z,98953.21
2019-05-29T01:51:44.583Z,98952.73
2019-05-29T01:54:13.075Z,98956.27
2019-05-29T01:56:41.533Z,98958.02
2019-05-29T01:59:10.114Z,98962.87
2019-05-29T02:01:38.630Z,98962.43
2019-05-29T02:04:07.162Z,98968.56
2019-05-29T02:06:35.612Z,98962.83
2019-05-29T02:09:05.896Z,98972.08
2019-05-29T02:11:34.376Z,98972.09
2019-05-29T02:14:02.818Z,98977.84
2019-05-29T02:16:31.372Z,98982.25
2019-05-29T02:18:59.826Z,98981.81
2019-05-29T02:21:28.490Z,98992.38
2019-05-29T02:23:57.228Z,98984.48
2019-05-29T02:26:26.562Z,98991.06
2019-05-29T02:28:55.315Z,99000.75
2019-05-29T02:31:26.327Z,98995.91
2019-05-29T02:33:54.366Z,98997.71
2019-05-29T02:36:24.461Z,99005.16
2019-05-29T02:38:53.097Z,99003.41
2019-05-29T02:41:23.498Z,99006.48
2019-05-29T02:43:51.818Z,99008.25
2019-05-29T02:46:21.738Z,99004.23
2019-05-29T02:48:50.528Z,99009.97
2019-05-29T02:51:19.782Z,99010.00
2019-05-29T02:53:48.592Z,99017.89
2019-05-29T02:56:17.034Z,99021.42
2019-05-29T02:58:46.065Z,99015.28
2019-05-29T03:01:14.591Z,99025.81
2019-05-29T03:03:43.069Z,99026.25
2019-05-29T03:06:13.051Z,99034.63
2019-05-29T03:08:41.618Z,99039.52
2019-05-29T03:11:10.129Z,99046.09
2019-05-29T03:13:38.905Z,99044.77
2019-05-29T03:16:12.114Z,99051.36
2019-05-29T03:18:38.159Z,99050.43
2019-05-29T03:21:06.637Z,99053.00
2019-05-29T03:23:36.199Z,99059.16
2019-05-29T03:26:05.679Z,99061.30
2019-05-29T03:28:34.963Z,99074.06
2019-05-29T03:31:03.864Z,99079.33
2019-05-29T03:33:40.883Z,99077.52
2019-05-29T03:36:02.586Z,99083.23
2019-05-29T03:38:32.658Z,99085.94
2019-05-29T03:41:01.276Z,99092.99
2019-05-29T03:43:31.110Z,99100.49
2019-05-29T03:45:59.948Z,99098.73
2019-05-29T03:48:29.822Z,99107.54
2019-05-29T03:50:58.744Z,99108.91
2019-05-29T03:53:27.233Z,99111.03
2019-05-29T03:55:55.654Z,99118.42
2019-05-29T03:58:24.139Z,99117.13
2019-05-29T04:00:52.592Z,99117.58
2019-05-29T04:03:21.151Z,99119.83
2019-05-29T04:05:49.600Z,99123.38
2019-05-29T04:08:18.039Z,99126.02
2019-05-29T04:10:46.513Z,99125.48
2019-05-29T04:13:15.194Z,99130.30
2019-05-29T04:15:44.915Z,99134.70
2019-05-29T04:18:13.433Z,99140.81
2019-05-29T04:20:44.215Z,99141.75
2019-05-29T04:23:12.651Z,99149.16
2019-05-29T04:25:43.070Z,99146.23
2019-05-29T04:28:11.327Z,99146.28
2019-05-29T04:30:39.771Z,99154.16
2019-05-29T04:33:08.252Z,99156.80
2019-05-29T04:35:37.132Z,99167.30
2019-05-29T04:38:06.881Z,99176.20
2019-05-29T04:40:37.211Z,99186.35
2019-05-29T04:43:05.588Z,99181.85
2019-05-29T04:45:37.229Z,99190.70
2019-05-29T04:48:04.379Z,99196.08
2019-05-29T04:50:33.505Z,99196.48
2019-05-29T04:53:02.749Z,99192.69
2019-05-29T04:55:31.249Z,99200.34
2019-05-29T04:57:59.746Z,99196.88
2019-05-29T05:00:29.031Z,99195.61
2019-05-29T05:02:57.704Z,99206.94
2019-05-29T05:05:26.202Z,99204.28
2019-05-29T05:07:54.650Z,99206.56
2019-05-29T05:10:41.071Z,99211.09
2019-05-29T05:13:10.112Z,99215.55
2019-05-29T05:15:39.967Z,99212.91
2019-05-29T05:18:08.964Z,99222.50
2019-05-29T05:20:38.340Z,99216.33
2019-05-29T05:23:07.291Z,99217.72
2019-05-29T05:25:36.396Z,99221.73
2019-05-29T05:28:05.550Z,99227.98
2019-05-29T05:30:34.412Z,99228.47
2019-05-29T05:33:03.203Z,99230.73
2019-05-29T05:35:32.612Z,99234.27
2019-05-29T05:38:01.422Z,99234.70
2019-05-29T05:40:30.789Z,99242.64
2019-05-29T05:42:59.408Z,99248.77
2019-05-29T05:45:27.921Z,99255.87
2019-05-29T05:47:57.906Z,99261.05
2019-05-29T05:50:27.382Z,99258.91
2019-05-29T05:52:55.874Z,99266.02
2019-05-29T05:55:24.381Z,99270.31
2019-05-29T05:57:52.877Z,99270.14
2019-05-29T06:00:34.003Z,99282.00
2019-05-29T06:03:02.884Z,99279.03
2019-05-29T06:05:32.071Z,99279.41
2019-05-29T06:08:00.759Z,99282.19
2019-05-29T06:10:29.310Z,99286.55
2019-05-29T06:12:57.755Z,99290.56
2019-05-29T06:15:26.333Z,99301.52
2019-05-29T06:18:16.935Z,99299.69
2019-05-29T06:20:25.112Z,99297.05
2019-05-29T06:22:53.561Z,99299.33
2019-05-29T06:25:22.719Z,99300.27
2019-05-29T06:27:51.166Z,99304.24
2019-05-29T06:30:21.574Z,99300.28
2019-05-29T06:32:50.112Z,99311.31
2019-05-29T06:35:18.707Z,99308.64
2019-05-29T06:37:47.176Z,99313.87
2019-05-29T06:40:18.677Z,99316.44
2019-05-29T06:42:47.323Z,99324.44
2019-05-29T06:45:18.860Z,99320.50
2019-05-29T06:47:47.375Z,99318.00
2019-05-29T06:50:15.965Z,99318.01
2019-05-29T06:52:44.440Z,99321.98
2019-05-29T06:55:13.228Z,99318.02
2019-05-29T06:57:42.650Z,99324.62
2019-05-29T07:00:11.875Z,99326.37
2019-05-29T07:02:40.875Z,99330.24
2019-05-29T07:05:09.566Z,99331.13
2019-05-29T07:07:38.346Z,99332.92
2019-05-29T07:10:07.493Z,99332.48
2019-05-29T07:12:36.287Z,99338.27
2019-05-29T07:15:07.401Z,99342.67
2019-05-29T07:17:36.323Z,99346.14
2019-05-29T07:20:07.551Z,99345.79
2019-05-29T07:22:36.958Z,99342.38
2019-05-29T07:25:06.997Z,99350.36
2019-05-29T07:27:36.727Z,99351.34
2019-05-29T07:30:07.235Z,99356.69
2019-05-29T07:32:38.121Z,99359.00
2019-05-29T07:35:06.651Z,99359.00
2019-05-29T07:37:35.124Z,99362.49
2019-05-29T07:40:05.146Z,99362.13
2019-05-29T07:42:33.590Z,99371.45
2019-05-29T07:45:02.106Z,99378.98
2019-05-29T07:47:30.551Z,99379.39
2019-05-29T07:49:59.025Z,99381.64
2019-05-29T07:52:27.473Z,99378.10
2019-05-29T07:54:55.971Z,99377.15
2019-05-29T07:57:24.419Z,99385.01
2019-05-29T07:59:52.910Z,99382.41
2019-05-29T08:02:21.354Z,99378.42
2019-05-29T08:04:50.021Z,99385.84
2019-05-29T08:07:18.522Z,99388.63
2019-05-29T08:09:47.848Z,99387.93
2019-05-29T08:12:16.525Z,99383.51
2019-05-29T08:14:45.820Z,99384.81
2019-05-29T08:17:14.527Z,99392.77
2019-05-29T08:20:00.624Z,99390.58
2019-05-29T08:22:13.166Z,99396.77
2019-05-29T08:24:42.630Z,99399.39
2019-05-29T08:27:11.461Z,99410.32
2019-05-29T08:29:40.575Z,99408.55
2019-05-29T08:32:09.087Z,99413.96
2019-05-29T08:34:37.523Z,99411.38
2019-05-29T08:37:07.453Z,99422.45
2019-05-29T08:39:37.091Z,99414.05
2019-05-29T08:42:22.561Z,99412.64
2019-05-29T08:44:36.081Z,99417.27
2019-05-29T08:47:10.492Z,99417.45
2019-05-29T08:49:34.799Z,99421.52
2019-05-29T08:52:11.959Z,99423.72
2019-05-29T08:54:33.553Z,99428.63
2019-05-29T08:57:01.993Z,99434.82
2019-05-29T08:59:30.435Z,99426.87
2019-05-29T09:01:58.941Z,99430.39
2019-05-29T09:04:27.525Z,99432.17
2019-05-29T09:06:56.096Z,99441.03
2019-05-29T09:09:24.527Z,99438.36
2019-05-29T09:11:53.797Z,99440.14
2019-05-29T09:14:22.583Z,99445.88
2019-05-29T09:16:51.029Z,99452.53
2019-05-29T09:19:21.069Z,99454.73
2019-05-29T09:21:49.754Z,99445.77
2019-05-29T09:24:19.403Z,99452.66
2019-05-29T09:26:48.264Z,99455.36
2019-05-29T09:29:18.702Z,99457.71
2019-05-29T09:31:46.967Z,99455.44
2019-05-29T09:34:16.609Z,99450.50
2019-05-29T09:36:48.838Z,99461.30
2019-05-29T09:39:18.427Z,99460.87
2019-05-29T09:41:47.515Z,99460.70
2019-05-29T09:44:31.179Z,99456.46
2019-05-29T09:46:46.206Z,99467.48
2019-05-29T09:49:16.646Z,99467.47
2019-05-29T09:51:44.898Z,99467.58
2019-05-29T09:54:13.511Z,99468.88
2019-05-29T09:56:41.940Z,99471.42
2019-05-29T09:59:10.472Z,99474.05
2019-05-29T10:01:39.053Z,99469.12
2019-05-29T10:04:07.575Z,99472.39
2019-05-29T10:06:36.124Z,99478.59
2019-05-29T10:09:07.755Z,99477.69
2019-05-29T10:11:36.279Z,99479.59
2019-05-29T10:14:05.714Z,99480.80
2019-05-29T10:16:34.188Z,99486.95
2019-05-29T10:19:03.258Z,99482.33
2019-05-29T10:21:40.188Z,99488.63
2019-05-29T10:24:03.675Z,99488.19
2019-05-29T10:26:32.364Z,99488.81
2019-05-29T10:29:08.264Z,99485.26
2019-05-29T10:31:31.043Z,99486.44
2019-05-29T10:33:59.506Z,99482.20
2019-05-29T10:36:28.273Z,99490.91
2019-05-29T10:38:56.976Z,99487.19
2019-05-29T10:41:25.468Z,99493.95
2019-05-29T10:43:53.929Z,99489.61
2019-05-29T10:46:22.419Z,99495.12
2019-05-29T10:48:54.202Z,99489.89
2019-05-29T10:51:21.125Z,99492.89
2019-05-29T10:53:52.136Z,99497.39
2019-05-29T10:56:21.215Z,99500.61
2019-05-29T10:58:56.160Z,99498.47
2019-05-29T11:01:20.371Z,99496.52
2019-05-29T11:03:49.355Z,99491.93
2019-05-29T11:06:18.003Z,99490.55
2019-05-29T11:08:47.884Z,99498.97
2019-05-29T11:11:16.637Z,99495.86
2019-05-29T11:13:46.603Z,99500.10
2019-05-29T11:16:15.327Z,99490.41
2019-05-29T11:18:43.783Z,99492.38
2019-05-29T11:21:12.289Z,99484.64
2019-05-29T11:23:40.823Z,99490.78
2019-05-29T11:26:09.392Z,99484.83
2019-05-29T11:28:37.852Z,99496.78
2019-05-29T11:31:06.593Z,99497.61
2019-05-29T11:33:35.039Z,99498.64
2019-05-29T11:36:12.263Z,99499.13
2019-05-29T11:38:33.858Z,99495.09
2019-05-29T11:41:23.587Z,99489.73
2019-05-29T11:43:32.710Z,99492.41
2019-05-29T11:46:01.991Z,99495.53
2019-05-29T11:48:30.659Z,99499.55
2019-05-29T11:50:59.098Z,99502.00
2019-05-29T11:53:27.596Z,99491.42
2019-05-29T11:56:02.059Z,99491.77
2019-05-29T11:58:31.766Z,99485.88
2019-05-29T12:01:01.254Z,99487.69
2019-05-29T12:03:30.103Z,99494.09
2019-05-29T12:05:59.401Z,99495.77
2019-05-29T12:08:28.105Z,99498.31
2019-05-29T12:10:57.368Z,99499.47
2019-05-29T12:13:26.067Z,99495.48
2019-05-29T12:15:55.798Z,99493.02
2019-05-29T12:18:25.014Z,99495.34
2019-05-29T12:20:53.985Z,99489.12
2019-05-29T12:23:26.169Z,99497.28
2019-05-29T12:26:12.883Z,99497.54
2019-05-29T12:28:23.098Z,99501.02
2019-05-29T12:30:53.324Z,99498.91
2019-05-29T12:33:21.837Z,99498.34
2019-05-29T12:35:50.471Z,99499.61
2019-05-29T12:38:18.875Z,99492.88
2019-05-29T12:40:47.397Z,99500.17
2019-05-29T12:43:26.364Z,99493.69
2019-05-29T12:45:46.208Z,99494.78
2019-05-29T12:48:15.848Z,99495.07
2019-05-29T12:50:44.923Z,99487.64
2019-05-29T12:53:28.703Z,99485.27
2019-05-29T12:55:43.683Z,99486.27
2019-05-29T12:58:12.188Z,99483.42
2019-05-29T13:00:40.783Z,99482.89
2019-05-29T13:03:09.277Z,99483.57
2019-05-29T13:05:37.787Z,99485.02
2019-05-29T13:08:06.429Z,99485.77
2019-05-29T13:10:34.958Z,99486.64
2019-05-29T13:13:08.466Z,99486.56
2019-05-29T13:15:33.730Z,99493.48
2019-05-29T13:18:06.347Z,99480.04
2019-05-29T13:20:32.414Z,99479.23
2019-05-29T13:23:02.729Z,99482.84
2019-05-29T13:25:31.158Z,99496.08
2019-05-29T13:28:01.176Z,99484.64
2019-05-29T13:30:29.969Z,99484.63
2019-05-29T13:33:02.173Z,99475.30
2019-05-29T13:35:28.859Z,99481.88
2019-05-29T13:37:57.305Z,99476.09
2019-05-29T13:40:25.951Z,99480.39
2019-05-29T13:42:54.410Z,99495.09
2019-05-29T13:45:22.908Z,99478.41
2019-05-29T13:47:51.358Z,99478.02
2019-05-29T13:50:20.949Z,99477.02
2019-05-29T13:52:50.309Z,99477.41
2019-05-29T13:55:18.905Z,99476.46
2019-05-29T13:57:47.404Z,99473.89
2019-05-29T14:00:34.955Z,99475.05
2019-05-29T14:02:48.797Z,99481.28
2019-05-29T14:05:17.994Z,99478.79
2019-05-29T14:07:46.495Z,99473.95
2019-05-29T14:10:15.293Z,99475.36
2019-05-29T14:12:43.749Z,99479.11
2019-05-29T14:15:13.389Z,99474.09
2019-05-29T14:17:41.889Z,99472.50
2019-05-29T14:20:11.197Z,99472.58
2019-05-29T14:22:39.716Z,99476.05
2019-05-29T14:25:09.598Z,99481.41
2019-05-29T14:27:38.149Z,99482.66
2019-05-29T14:30:14.109Z,99477.23
2019-05-29T14:32:42.696Z,99479.05
2019-05-29T14:35:13.249Z,99483.83
2019-05-29T14:37:41.627Z,99483.89
2019-05-29T14:40:12.059Z,99488.63
2019-05-29T14:42:40.985Z,99483.89
2019-05-29T14:45:10.706Z,99485.80
2019-05-29T14:47:40.561Z,99492.08
2019-05-29T14:50:11.140Z,99493.42
2019-05-29T14:52:40.426Z,99486.24
2019-05-29T14:55:14.121Z,99483.00
2019-05-29T14:57:39.659Z,99485.65
2019-05-29T15:00:22.829Z,99484.30
2019-05-29T15:02:42.979Z,99484.53
2019-05-29T15:05:12.690Z,99487.69
2019-05-29T15:07:42.202Z,99487.95
2019-05-29T15:10:24.024Z,99489.72
2019-05-29T15:12:41.795Z,99489.80
2019-05-29T15:15:15.641Z,99481.96
2019-05-29T15:17:41.635Z,99479.84
2019-05-29T15:20:12.590Z,99479.84
2019-05-29T15:22:41.731Z,99485.69
2019-05-29T15:25:19.970Z,99478.25
2019-05-29T15:27:41.148Z,99485.22
2019-05-29T15:30:11.566Z,99489.69
2019-05-29T15:32:40.996Z,99486.89
2019-05-29T15:35:14.459Z,99492.69
2019-05-29T15:37:40.978Z,99490.35
2019-05-29T15:40:11.060Z,99491.21
2019-05-29T15:42:39.945Z,99488.22
2019-05-29T15:45:10.251Z,99486.89
2019-05-29T15:47:38.734Z,99494.41
2019-05-29T15:50:09.166Z,99493.56
2019-05-29T15:52:38.055Z,99489.52
2019-05-29T15:55:27.455Z,99493.66
2019-05-29T15:57:40.499Z,99491.84
2019-05-29T16:00:11.396Z,99491.42
2019-05-29T16:02:40.204Z,99489.67
2019-05-29T16:05:10.921Z,99490.13
2019-05-29T16:07:39.667Z,99488.90
2019-05-29T16:10:13.095Z,99490.30
2019-05-29T16:12:39.748Z,99482.00
2019-05-29T16:15:09.313Z,99488.09
2019-05-29T16:17:37.771Z,99489.28
2019-05-29T16:20:10.311Z,99487.03
2019-05-29T16:22:39.130Z,99488.02
2019-05-29T16:25:09.303Z,99492.90
2019-05-29T16:27:37.763Z,99488.20
2019-05-29T16:30:08.742Z,99494.00
2019-05-29T16:32:37.242Z,99498.47
2019-05-29T16:35:09.098Z,99496.67
2019-05-29T16:37:37.676Z,99501.64
2019-05-29T16:40:09.187Z,99505.67
2019-05-29T16:42:37.691Z,99497.69
2019-05-29T16:45:08.870Z,99501.31
2019-05-29T16:47:37.432Z,99503.56
2019-05-29T16:50:09.863Z,99495.03
2019-05-29T16:52:38.725Z,99498.08
2019-05-29T16:55:08.244Z,99501.24
2019-05-29T16:57:36.841Z,99507.50
2019-05-29T17:00:09.910Z,99507.98
2019-05-29T17:02:39.211Z,99510.66
2019-05-29T17:05:08.257Z,99509.75
2019-05-29T17:07:36.853Z,99514.64
2019-05-29T17:10:09.593Z,99515.56
2019-05-29T17:12:38.107Z,99518.20
2019-05-29T17:15:15.009Z,99520.90
2019-05-29T17:17:43.637Z,99518.66
2019-05-29T17:20:14.560Z,99520.42
2019-05-29T17:22:43.241Z,99520.47
2019-05-29T17:25:12.125Z,99512.98
2019-05-29T17:27:40.694Z,99512.55
2019-05-29T17:30:11.281Z,99518.33
2019-05-29T17:32:39.805Z,99520.13
2019-05-29T17:35:09.787Z,99514.89
2019-05-29T17:37:38.480Z,99516.66
2019-05-29T17:40:08.177Z,99520.72
2019-05-29T17:42:36.705Z,99517.18
2019-05-29T17:45:11.341Z,99515.00
2019-05-29T17:47:40.341Z,99519.53
2019-05-29T17:50:10.109Z,99521.83
2019-05-29T17:52:38.747Z,99523.23
2019-05-29T17:55:07.635Z,99522.38
2019-05-29T17:57:36.152Z,99521.54
2019-05-29T18:00:10.504Z,99516.23
2019-05-29T18:02:51.271Z,99526.47
2019-05-29T18:05:10.508Z,99526.03
2019-05-29T18:07:38.970Z,99529.61
2019-05-29T18:10:08.572Z,99532.69
2019-05-29T18:12:37.038Z,99533.58
2019-05-29T18:15:07.640Z,99528.32
2019-05-29T18:17:36.092Z,99524.81
2019-05-29T18:20:09.206Z,99532.39
2019-05-29T18:22:37.674Z,99523.95
2019-05-29T18:25:07.622Z,99533.28
2019-05-29T18:27:36.522Z,99529.77
2019-05-29T18:30:07.416Z,99530.20
2019-05-29T18:32:37.046Z,99530.20
2019-05-29T18:35:08.814Z,99529.30
2019-05-29T18:37:37.262Z,99524.86
2019-05-29T18:40:09.937Z,99536.88
2019-05-29T18:42:37.091Z,99533.36
2019-05-29T18:45:19.600Z,99535.17
2019-05-29T18:47:38.479Z,99532.98
2019-05-29T18:50:11.001Z,99536.13
2019-05-29T18:52:39.494Z,99539.23
2019-05-29T18:55:08.993Z,99540.59
2019-05-29T18:57:37.515Z,99542.36
2019-05-29T19:00:11.417Z,99534.84
2019-05-29T19:02:39.922Z,99542.83
2019-05-29T19:05:09.320Z,99541.50
2019-05-29T19:07:37.889Z,99544.17
2019-05-29T19:10:07.482Z,99545.51
2019-05-29T19:12:36.324Z,99545.94
2019-05-29T19:15:08.691Z,99549.92
2019-05-29T19:17:37.429Z,99545.92
2019-05-29T19:20:08.937Z,99553.45
2019-05-29T19:22:37.511Z,99559.20
2019-05-29T19:25:07.413Z,99559.20
2019-05-29T19:27:41.553Z,99561.41
2019-05-29T19:30:09.224Z,99571.16
2019-05-29T19:32:37.819Z,99572.92
2019-05-29T19:35:08.278Z,99572.92
2019-05-29T19:37:36.813Z,99572.95
2019-05-29T19:40:07.555Z,99580.00
2019-05-29T19:42:36.012Z,99575.59
2019-05-29T19:45:09.623Z,99579.13
2019-05-29T19:47:38.079Z,99581.34
2019-05-29T19:50:11.161Z,99587.52
2019-05-29T19:52:38.636Z,99592.83
2019-05-29T19:55:08.311Z,99593.28
2019-05-29T19:57:52.466Z,99596.35
2019-05-29T20:00:09.602Z,99602.11
2019-05-29T20:02:39.205Z,99595.03
2019-05-29T20:05:08.555Z,99595.47
2019-05-29T20:07:37.538Z,99598.09
2019-05-29T20:10:08.482Z,99599.84
2019-05-29T20:12:38.086Z,99603.81
2019-05-29T20:15:07.934Z,99606.03
2019-05-29T20:17:36.397Z,99600.68
2019-05-29T20:20:07.427Z,99604.66
2019-05-29T20:22:36.935Z,99605.49
2019-05-29T20:25:07.590Z,99607.66
2019-05-29T20:27:36.397Z,99610.31
2019-05-29T20:30:11.322Z,99616.48
2019-05-29T20:32:39.816Z,99617.81
2019-05-29T20:35:09.352Z,99613.80
2019-05-29T20:37:38.363Z,99617.31
2019-05-29T20:40:08.511Z,99625.20
2019-05-29T20:42:37.023Z,99621.63
2019-05-29T20:45:07.735Z,99616.31
2019-05-29T20:47:36.241Z,99620.67
2019-05-29T20:50:07.307Z,99618.46
2019-05-29T20:52:37.185Z,99614.88
2019-05-29T20:55:06.656Z,99617.95
2019-05-29T20:57:35.974Z,99622.80
2019-05-29T21:00:07.621Z,99625.39
2019-05-29T21:02:36.162Z,99618.76
2019-05-29T21:05:07.266Z,99621.85
2019-05-29T21:07:36.624Z,99624.07
2019-05-29T21:10:06.424Z,99629.78
2019-05-29T21:12:35.241Z,99624.92
2019-05-29T21:15:04.883Z,99628.02
2019-05-29T21:17:33.733Z,99628.37
2019-05-29T21:20:02.496Z,99631.84
2019-05-29T21:22:30.953Z,99627.41
2019-05-29T21:25:06.419Z,99630.92
2019-05-29T21:27:29.759Z,99629.97
2019-05-29T21:29:58.260Z,99634.39
2019-05-29T21:32:26.796Z,99624.23
2019-05-29T21:34:55.284Z,99633.48
2019-05-29T21:37:23.744Z,99632.58
2019-05-29T21:39:52.243Z,99633.83
2019-05-29T21:42:20.696Z,99634.17
2019-05-29T21:44:49.206Z,99629.76
2019-05-29T21:47:17.729Z,99635.52
2019-05-29T21:49:47.484Z,99633.72
2019-05-29T21:52:16.150Z,99627.97
2019-05-29T21:54:45.689Z,99630.64
2019-05-29T21:57:14.609Z,99627.55
2019-05-29T21:59:43.817Z,99634.14
2019-05-29T22:02:12.755Z,99634.58
2019-05-29T22:04:42.248Z,99635.48
2019-05-29T22:07:11.222Z,99627.61
2019-05-29T22:09:39.675Z,99631.69
2019-05-29T22:12:08.174Z,99627.32
2019-05-29T22:14:36.777Z,99626.41
2019-05-29T22:17:05.349Z,99622.27
2019-05-29T22:19:33.883Z,99625.78
2019-05-29T22:22:02.420Z,99624.44
2019-05-29T22:24:30.869Z,99621.44
2019-05-29T22:26:59.414Z,99622.38
2019-05-29T22:29:27.839Z,99613.27
2019-05-29T22:31:57.493Z,99616.89
2019-05-29T22:34:26.380Z,99631.06
2019-05-29T22:36:55.489Z,99626.79
2019-05-29T22:39:24.076Z,99622.38
2019-05-29T22:41:53.448Z,99627.59
2019-05-29T22:44:21.985Z,99621.31
2019-05-29T22:46:51.565Z,99616.74
2019-05-29T22:49:20.330Z,99620.22
2019-05-29T22:51:48.786Z,99620.14
2019-05-29T22:54:17.263Z,99608.58
2019-05-29T22:56:45.722Z,99612.09
2019-05-29T22:59:14.218Z,99611.97
2019-05-29T23:01:42.697Z,99609.33
2019-05-29T23:04:11.265Z,99607.02
2019-05-29T23:06:39.724Z,99606.56
2019-05-29T23:09:08.364Z,99598.69
2019-05-29T23:11:36.900Z,99599.61
2019-05-29T23:14:05.527Z,99596.61
2019-05-29T23:16:34.128Z,99595.80
2019-05-29T23:19:02.837Z,99597.61
2019-05-29T23:21:31.386Z,99605.66
2019-05-29T23:23:59.835Z,99598.34
2019-05-29T23:26:28.334Z,99594.72
2019-05-29T23:28:56.885Z,99595.49
2019-05-29T23:31:25.381Z,99591.86
2019-05-29T23:33:54.787Z,99587.36
2019-05-29T23:36:23.501Z,99590.81
2019-05-29T23:38:53.145Z,99593.41
2019-05-29T23:41:21.867Z,99582.77
2019-05-29T23:43:50.330Z,99579.68
2019-05-29T23:46:18.839Z,99573.89
2019-05-29T23:48:47.287Z,99576.53
2019-05-29T23:51:15.863Z,99571.59
2019-05-29T23:53:44.313Z,99575.88
2019-05-29T23:56:12.800Z,99575.78
2019-05-29T23:58:41.263Z,99571.36
